Time;durP1;ratioP1;P1;durP2;ratioP2;P2;SDS_P1;SDS_P2;PMS_P1;PMS_P2;Temp;Humidity;BMP_temperature;BMP_pressure;BME280_temperature;BME280_humidity;BME280_pressure;Samples;Min_cycle;Max_cycle;Signal;HPM_P1;HPM_P2
2023/05/01 00:02:05;;;;;;;;;;;;;;;22.40;26.45;97803.41;4946373;29;997;-79
2023/05/01 00:04:32;;;;;;;;;;;;;;;21.94;27.24;97806.44;4960798;29;1085;-78
2023/05/01 00:06:57;;;;;;;;;;;;;;;21.78;27.26;97807.34;4961189;29;1160;-78
2023/05/01 00:09:25;;;;;;;;;;;;;;;21.71;27.48;97810.41;4928337;29;995;-78
2023/05/01 00:11:51;;;;;;;;;;;;;;;21.74;27.39;97809.47;4930336;29;1116;-79
2023/05/01 00:14:16;;;;;;;;;;;;;;;21.54;27.80;97806.03;4944337;29;1903;-78
2023/05/01 00:16:42;;;;;;;;;;;;;;;22.10;27.09;97816.88;4934042;28;1106;-78
2023/05/01 00:19:08;;;;;;;;;;;;;;;22.19;26.97;97817.03;4966798;28;1029;-78
2023/05/01 00:21:33;;;;;;;;;;;;;;;22.38;26.62;97822.91;5014325;28;1063;-78
2023/05/01 00:23:59;;;;;;;;;;;;;;;22.22;26.75;97826.66;5005022;28;1230;-78
2023/05/01 00:26:29;;;;;;;;;;;;;;;21.73;27.13;97819.22;4991346;28;1154;-79
2023/05/01 00:28:54;;;;;;;;;;;;;;;21.56;27.70;97821.34;5006518;28;1148;-79
2023/05/01 00:31:20;;;;;;;;;;;;;;;21.81;27.55;97826.28;5007050;28;1191;-79
2023/05/01 00:33:45;;;;;;;;;;;;;;;22.10;26.86;97825.38;5021364;28;1918;-79
2023/05/01 00:36:11;;;;;;;;;;;;;;;22.32;26.71;97831.97;5007458;28;1136;-78
2023/05/01 00:38:36;;;;;;;;;;;;;;;22.09;26.52;97835.13;5021175;28;1066;-79
2023/05/01 00:41:02;;;;;;;;;;;;;;;21.69;27.13;97827.03;5007338;28;891;-78
2023/05/01 00:43:27;;;;;;;;;;;;;;;21.61;26.99;97833.38;4987722;28;1298;-78
2023/05/01 00:45:53;;;;;;;;;;;;;;;21.88;26.78;97830.94;4976901;28;1152;-79
2023/05/01 00:48:18;;;;;;;;;;;;;;;22.23;26.80;97831.91;5025279;28;928;-78
2023/05/01 00:50:44;;;;;;;;;;;;;;;22.23;26.84;97834.72;5011024;28;1213;-77
2023/05/01 00:53:09;;;;;;;;;;;;;;;22.21;26.65;97825.88;5026014;28;1013;-79
2023/05/01 00:55:35;;;;;;;;;;;;;;;22.07;26.53;97838.44;5027233;28;1890;-79
2023/05/01 00:58:01;;;;;;;;;;;;;;;21.93;26.59;97841.69;5025714;28;924;-78
2023/05/01 01:00:28;;;;;;;;;;;;;;;21.83;26.77;97835.09;5026938;28;950;-78
2023/05/01 01:02:53;;;;;;;;;;;;;;;21.71;27.18;97846.41;5026422;28;992;-78
2023/05/01 01:05:19;;;;;;;;;;;;;;;21.43;27.66;97850.84;5009853;28;1405;-78
2023/05/01 01:07:54;;;;;;;;;;;;;;;21.53;27.86;97844.09;5026723;28;878;-78
2023/05/01 01:10:32;;;;;;;;;;;;;;;22.10;27.08;97848.06;5026164;28;871;-78
2023/05/01 01:13:08;;;;;;;;;;;;;;;22.48;26.27;97850.91;5025835;28;1287;-78
2023/05/01 01:15:43;;;;;;;;;;;;;;;21.84;27.13;97847.22;5027053;28;1875;-78
2023/05/01 01:18:32;;;;;;;;;;;;;;;21.81;27.24;97843.28;5008939;28;1029;-78
2023/05/01 01:21:07;;;;;;;;;;;;;;;21.78;27.03;97844.16;4990791;28;1483;-76
2023/05/01 01:23:48;;;;;;;;;;;;;;;21.83;27.02;97846.44;4980391;28;1224;-78
2023/05/01 01:26:33;;;;;;;;;;;;;;;21.57;27.75;97850.47;4966909;28;1151;-79
2023/05/01 01:29:03;;;;;;;;;;;;;;;21.57;27.81;97845.59;4965943;28;1088;-78
2023/05/01 01:31:29;;;;;;;;;;;;;;;21.56;27.80;97846.03;4951044;28;1121;-78
2023/05/01 01:33:55;;;;;;;;;;;;;;;21.97;27.16;97838.75;4966171;28;2029;-78
2023/05/01 01:36:40;;;;;;;;;;;;;;;22.16;26.79;97849.09;4983890;28;910;-79
2023/05/01 01:39:10;;;;;;;;;;;;;;;22.17;27.10;97853.53;4950233;28;959;-78
2023/05/01 01:41:36;;;;;;;;;;;;;;;21.57;27.59;97844.78;4967791;28;1081;-79
2023/05/01 01:44:12;;;;;;;;;;;;;;;21.95;27.23;97852.56;4950447;28;1085;-79
2023/05/01 01:46:38;;;;;;;;;;;;;;;21.61;27.70;97844.69;4951181;28;1121;-79
2023/05/01 01:49:05;;;;;;;;;;;;;;;21.52;28.00;97842.50;4948945;28;1121;-79
2023/05/01 01:51:32;;;;;;;;;;;;;;;21.93;27.33;97844.53;4957002;28;1453;-78
2023/05/01 01:53:57;;;;;;;;;;;;;;;22.19;26.92;97850.25;4946585;29;1910;-78
2023/05/01 01:56:24;;;;;;;;;;;;;;;22.33;26.71;97844.13;4947927;29;967;-78
2023/05/01 01:58:50;;;;;;;;;;;;;;;21.99;27.24;97842.72;4908105;29;1201;-78
2023/05/01 02:01:15;;;;;;;;;;;;;;;21.63;27.39;97843.00;4933282;29;1424;-78
2023/05/01 02:03:41;;;;;;;;;;;;;;;21.47;27.68;97845.91;4948943;29;1105;-78
2023/05/01 02:06:07;;;;;;;;;;;;;;;21.89;27.75;97848.72;4950627;29;1406;-78
2023/05/01 02:08:32;;;;;;;;;;;;;;;22.35;26.80;97853.75;4948590;29;1489;-78
2023/05/01 02:10:58;;;;;;;;;;;;;;;22.40;26.61;97857.28;4936018;29;1130;-78
2023/05/01 02:13:27;;;;;;;;;;;;;;;22.18;26.70;97849.47;4949219;29;1135;-79
2023/05/01 02:15:53;;;;;;;;;;;;;;;21.96;27.10;97848.50;4952179;29;1948;-79
2023/05/01 02:18:19;;;;;;;;;;;;;;;21.72;27.29;97860.13;4949313;29;933;-78
2023/05/01 02:20:45;;;;;;;;;;;;;;;21.81;27.17;97860.25;4935004;29;1325;-78
2023/05/01 02:23:10;;;;;;;;;;;;;;;21.68;27.55;97867.13;4910670;29;1204;-78
2023/05/01 02:25:36;;;;;;;;;;;;;;;21.54;28.00;97869.13;4896821;29;1152;-78
2023/05/01 02:28:02;;;;;;;;;;;;;;;21.45;28.05;97859.69;4910605;29;1070;-79
2023/05/01 02:30:28;;;;;;;;;;;;;;;21.41;28.06;97861.84;4927222;29;1121;-78
2023/05/01 02:32:54;;;;;;;;;;;;;;;21.61;27.88;97864.53;4926415;29;1254;-78
2023/05/01 02:35:20;;;;;;;;;;;;;;;21.43;27.99;97865.00;4931400;29;1906;-78
2023/05/01 02:37:46;;;;;;;;;;;;;;;21.52;28.10;97871.63;4968905;28;965;-77
2023/05/01 02:40:13;;;;;;;;;;;;;;;22.05;27.15;97869.25;4968535;28;1200;-78
2023/05/01 02:42:43;;;;;;;;;;;;;;;22.33;26.67;97873.28;4969930;28;1277;-79
2023/05/01 02:45:09;;;;;;;;;;;;;;;22.26;26.68;97873.47;4935990;28;1322;-79
2023/05/01 02:47:36;;;;;;;;;;;;;;;22.10;26.93;97873.56;4953639;28;1137;-78
2023/05/01 02:50:02;;;;;;;;;;;;;;;21.68;27.39;97875.63;4968395;28;1280;-78
2023/05/01 02:52:28;;;;;;;;;;;;;;;21.73;27.62;97875.88;4969040;28;1082;-78
2023/05/01 02:55:07;;;;;;;;;;;;;;;21.69;27.42;97875.16;4967581;28;1883;-78
2023/05/01 02:57:33;;;;;;;;;;;;;;;21.97;27.59;97869.94;4953030;28;1310;-78
2023/05/01 02:59:58;;;;;;;;;;;;;;;22.30;26.65;97879.84;4980451;28;1158;-78
2023/05/01 03:02:24;;;;;;;;;;;;;;;22.22;26.87;97884.13;5012732;28;1203;-78
2023/05/01 03:04:49;;;;;;;;;;;;;;;21.94;27.28;97890.66;5044921;28;936;-78
2023/05/01 03:07:15;;;;;;;;;;;;;;;21.64;27.59;97883.44;5046542;28;884;-78
2023/05/01 03:09:40;;;;;;;;;;;;;;;21.57;27.54;97892.94;5010712;28;1266;-78
2023/05/01 03:12:06;;;;;;;;;;;;;;;21.66;27.34;97901.56;5046610;28;801;-78
2023/05/01 03:14:32;;;;;;;;;;;;;;;22.43;26.68;97904.56;5009100;28;1902;-78
2023/05/01 03:16:57;;;;;;;;;;;;;;;22.47;26.67;97910.91;5045864;28;915;-78
2023/05/01 03:19:23;;;;;;;;;;;;;;;22.10;26.64;97907.56;5010242;28;1139;-78
2023/05/01 03:21:48;;;;;;;;;;;;;;;21.68;27.23;97913.22;5046098;28;905;-78
2023/05/01 03:24:14;;;;;;;;;;;;;;;21.53;27.28;97917.69;5010480;28;1126;-78
2023/05/01 03:26:39;;;;;;;;;;;;;;;21.62;27.25;97914.25;5011872;28;1124;-78
2023/05/01 03:29:05;;;;;;;;;;;;;;;21.66;27.58;97918.56;5027103;28;982;-78
2023/05/01 03:31:31;;;;;;;;;;;;;;;21.68;27.69;97918.91;5011242;28;1184;-78
2023/05/01 03:33:58;;;;;;;;;;;;;;;21.75;27.43;97930.00;4970102;28;1932;-78
2023/05/01 03:36:24;;;;;;;;;;;;;;;21.47;27.90;97922.31;4948777;29;1204;-79
2023/05/01 03:38:51;;;;;;;;;;;;;;;21.55;28.06;97932.19;4931394;29;1007;-79
2023/05/01 03:41:34;;;;;;;;;;;;;;;21.43;28.32;97942.22;4964777;29;975;-79
2023/05/01 03:44:15;;;;;;;;;;;;;;;21.64;27.94;97935.19;4963183;29;1103;-79
2023/05/01 03:46:43;;;;;;;;;;;;;;;21.63;27.97;97938.47;4965058;29;1126;-79
2023/05/01 03:49:14;;;;;;;;;;;;;;;21.59;27.67;97952.72;4947297;29;1062;-79
2023/05/01 03:51:45;;;;;;;;;;;;;;;21.93;27.31;97954.22;4930001;29;1108;-79
2023/05/01 03:54:10;;;;;;;;;;;;;;;22.11;27.19;97951.69;4943940;29;1884;-80
2023/05/01 03:57:02;;;;;;;;;;;;;;;21.99;27.30;97961.72;4900644;29;1059;-79
2023/05/01 03:59:29;;;;;;;;;;;;;;;21.96;27.49;97950.47;4887995;29;1364;-80
2023/05/01 04:01:54;;;;;;;;;;;;;;;21.56;27.78;97962.13;4888352;29;988;-79
2023/05/01 04:04:20;;;;;;;;;;;;;;;21.33;28.07;97966.75;4902432;29;1195;-79
2023/05/01 04:06:51;;;;;;;;;;;;;;;21.83;27.71;97964.59;4903721;29;1296;-79
2023/05/01 04:09:17;;;;;;;;;;;;;;;22.31;26.65;97960.78;4887472;29;1334;-80
2023/05/01 04:11:43;;;;;;;;;;;;;;;22.42;26.55;97973.84;4900567;29;949;-79
2023/05/01 04:14:08;;;;;;;;;;;;;;;22.03;27.18;97961.63;4898742;29;1895;-79
2023/05/01 04:16:35;;;;;;;;;;;;;;;21.74;27.57;97968.06;4922406;29;1240;-78
2023/05/01 04:19:01;;;;;;;;;;;;;;;21.78;27.47;97971.63;4921021;29;1126;-78
2023/05/01 04:21:30;;;;;;;;;;;;;;;21.72;27.61;97973.41;4937528;29;1267;-79
2023/05/01 04:23:55;;;;;;;;;;;;;;;21.69;27.60;97982.78;4958838;29;1133;-80
2023/05/01 04:26:21;;;;;;;;;;;;;;;21.54;27.79;97981.56;4945138;29;1146;-79
2023/05/01 04:28:47;;;;;;;;;;;;;;;22.17;27.25;97978.22;4958747;29;1011;-79
2023/05/01 04:31:16;;;;;;;;;;;;;;;22.35;26.88;97984.16;4943963;29;1623;-80
2023/05/01 04:33:41;;;;;;;;;;;;;;;21.96;27.33;97978.81;4988155;28;1069;-79
2023/05/01 04:36:07;;;;;;;;;;;;;;;21.82;27.43;97980.03;5005705;28;1914;-79
2023/05/01 04:38:32;;;;;;;;;;;;;;;21.56;27.80;97985.56;5003653;28;995;-79
2023/05/01 04:40:59;;;;;;;;;;;;;;;21.40;28.16;97987.59;4973908;28;1727;-79
2023/05/01 04:43:24;;;;;;;;;;;;;;;21.43;28.13;97981.06;4971286;28;1410;-79
2023/05/01 04:45:50;;;;;;;;;;;;;;;21.89;27.75;97996.00;5039422;28;963;-79
2023/05/01 04:48:15;;;;;;;;;;;;;;;22.11;27.22;97991.34;5025387;28;1211;-79
2023/05/01 04:50:41;;;;;;;;;;;;;;;21.95;27.36;97994.22;5026882;28;1241;-79
2023/05/01 04:53:07;;;;;;;;;;;;;;;21.74;27.77;97996.41;5024800;28;1200;-79
2023/05/01 04:55:34;;;;;;;;;;;;;;;21.78;27.47;97999.94;5025376;28;1903;-79
2023/05/01 04:58:04;;;;;;;;;;;;;;;21.68;27.73;98001.03;5008467;28;1277;-79
2023/05/01 05:00:31;;;;;;;;;;;;;;;21.72;27.76;98001.72;5009531;28;1127;-79
2023/05/01 05:02:57;;;;;;;;;;;;;;;21.78;27.72;98001.97;5009379;28;1596;-79
2023/05/01 05:05:24;;;;;;;;;;;;;;;21.47;27.89;98007.25;5009119;28;1189;-79
2023/05/01 05:07:50;;;;;;;;;;;;;;;21.51;27.92;98013.63;5004598;28;1379;-79
2023/05/01 05:10:38;;;;;;;;;;;;;;;21.68;27.88;98015.19;5007843;28;963;-79
2023/05/01 05:13:23;;;;;;;;;;;;;;;22.32;26.97;98015.44;5003599;28;1069;-79
2023/05/01 05:15:56;;;;;;;;;;;;;;;22.20;27.09;98014.16;5006918;28;1981;-79
2023/05/01 05:18:22;;;;;;;;;;;;;;;21.65;28.07;98021.72;5002932;28;1215;-79
2023/05/01 05:20:49;;;;;;;;;;;;;;;21.70;27.80;98012.69;4988604;28;1396;-79
2023/05/01 05:23:15;;;;;;;;;;;;;;;21.72;27.59;98018.72;4986830;28;1256;-79
2023/05/01 05:25:40;;;;;;;;;;;;;;;21.76;27.47;98022.25;4988918;28;1045;-79
2023/05/01 05:28:06;;;;;;;;;;;;;;;21.54;28.13;98032.53;5004049;28;924;-79
2023/05/01 05:30:32;;;;;;;;;;;;;;;21.53;28.03;98028.13;5004943;28;1683;-79
2023/05/01 05:32:58;;;;;;;;;;;;;;;21.57;27.87;98038.13;4987456;28;1172;-79
2023/05/01 05:35:23;;;;;;;;;;;;;;;21.72;27.92;98032.88;4971657;28;1888;-79
2023/05/01 05:37:50;;;;;;;;;;;;;;;22.32;26.92;98036.06;5009379;28;1251;-79
2023/05/01 05:40:15;;;;;;;;;;;;;;;22.13;27.21;98037.06;5028685;28;1161;-79
2023/05/01 05:42:56;;;;;;;;;;;;;;;22.24;27.09;98033.91;5028426;28;1067;-79
2023/05/01 05:45:23;;;;;;;;;;;;;;;21.76;27.59;98044.91;5029196;28;1217;-78
2023/05/01 05:47:49;;;;;;;;;;;;;;;21.71;27.63;98047.47;5028396;28;1392;-79
2023/05/01 05:50:14;;;;;;;;;;;;;;;21.56;27.70;98044.22;4988261;28;1286;-79
2023/05/01 05:52:42;;;;;;;;;;;;;;;21.84;27.51;98051.97;4972690;28;1126;-79
2023/05/01 05:55:08;;;;;;;;;;;;;;;21.62;27.65;98050.16;4971102;28;1918;-78
2023/05/01 05:57:36;;;;;;;;;;;;;;;21.55;27.77;98053.94;4972931;28;1130;-79
2023/05/01 06:00:04;;;;;;;;;;;;;;;21.54;27.85;98066.50;4988352;28;1258;-79
2023/05/01 06:02:37;;;;;;;;;;;;;;;21.65;27.50;98055.69;4989493;28;1150;-79
2023/05/01 06:05:03;;;;;;;;;;;;;;;21.89;27.40;98061.16;4971606;28;1160;-79
2023/05/01 06:07:29;;;;;;;;;;;;;;;22.13;26.85;98056.91;4988490;28;1217;-79
2023/05/01 06:10:00;;;;;;;;;;;;;;;22.22;26.66;98059.84;4971190;28;1160;-79
2023/05/01 06:12:26;;;;;;;;;;;;;;;21.94;27.10;98069.13;4969242;28;1470;-79
2023/05/01 06:14:51;;;;;;;;;;;;;;;21.73;27.46;98068.44;4967719;28;1914;-79
2023/05/01 06:17:17;;;;;;;;;;;;;;;21.64;27.43;98076.75;4969351;28;1297;-80
2023/05/01 06:19:42;;;;;;;;;;;;;;;21.54;27.79;98075.78;4967773;28;982;-79
2023/05/01 06:22:10;;;;;;;;;;;;;;;21.62;27.38;98079.25;4986869;28;1302;-79
2023/05/01 06:24:42;;;;;;;;;;;;;;;21.46;27.47;98082.09;4987276;28;1195;-79
2023/05/01 06:27:10;;;;;;;;;;;;;;;21.35;27.79;98078.72;4988948;28;1060;-79
2023/05/01 06:29:36;;;;;;;;;;;;;;;21.49;27.60;98081.19;4971343;28;1202;-79
2023/05/01 06:32:01;;;;;;;;;;;;;;;21.98;27.00;98089.66;4988948;28;1124;-79
2023/05/01 06:34:27;;;;;;;;;;;;;;;22.40;26.32;98089.75;4987165;28;1973;-79
2023/05/01 06:36:53;;;;;;;;;;;;;;;22.05;26.67;98092.28;4988459;28;1206;-79
2023/05/01 06:39:21;;;;;;;;;;;;;;;22.03;26.81;98086.28;4987578;28;1319;-79
2023/05/01 06:41:46;;;;;;;;;;;;;;;21.97;26.90;98099.41;4988289;28;976;-80
2023/05/01 06:44:13;;;;;;;;;;;;;;;21.77;26.92;98108.00;5008539;28;1096;-79
2023/05/01 06:46:39;;;;;;;;;;;;;;;21.56;27.28;98115.00;5028121;28;1083;-79
2023/05/01 06:49:05;;;;;;;;;;;;;;;21.63;27.22;98108.38;5010331;28;1127;-78
2023/05/01 06:51:31;;;;;;;;;;;;;;;22.04;26.99;98104.88;4996552;28;1146;-79
2023/05/01 06:53:57;;;;;;;;;;;;;;;22.23;26.38;98112.47;4994665;28;1941;-79
2023/05/01 06:56:22;;;;;;;;;;;;;;;22.20;26.42;98115.41;5012542;28;1404;-79
2023/05/01 06:58:48;;;;;;;;;;;;;;;21.91;26.72;98118.16;5026584;28;1057;-79
2023/05/01 07:01:13;;;;;;;;;;;;;;;21.62;27.30;98124.56;5045871;28;946;-78
2023/05/01 07:03:39;;;;;;;;;;;;;;;21.66;27.16;98119.63;5026143;28;1197;-79
2023/05/01 07:06:04;;;;;;;;;;;;;;;21.47;27.40;98120.47;4995163;28;1051;-79
2023/05/01 07:08:30;;;;;;;;;;;;;;;21.46;27.57;98135.88;5043863;28;947;-79
2023/05/01 07:10:56;;;;;;;;;;;;;;;21.87;27.00;98140.13;5028764;28;1162;-79
2023/05/01 07:13:21;;;;;;;;;;;;;;;22.05;26.65;98134.78;5009991;28;1226;-79
2023/05/01 07:15:47;;;;;;;;;;;;;;;21.90;26.77;98140.03;5028908;28;1906;-78
2023/05/01 07:18:13;;;;;;;;;;;;;;;21.78;26.83;98150.03;4966124;28;1052;-79
2023/05/01 07:20:39;;;;;;;;;;;;;;;21.73;27.03;98147.75;4967742;28;1104;-79
2023/05/01 07:23:05;;;;;;;;;;;;;;;21.61;26.98;98151.28;4966938;28;1203;-78
2023/05/01 07:25:30;;;;;;;;;;;;;;;21.42;27.44;98149.31;4967787;28;1063;-79
2023/05/01 07:27:56;;;;;;;;;;;;;;;21.06;27.84;98155.75;4966684;28;932;-79
2023/05/01 07:30:21;;;;;;;;;;;;;;;21.85;26.67;98166.84;4966451;28;995;-79
2023/05/01 07:32:47;;;;;;;;;;;;;;;22.01;26.76;98165.25;4967264;28;915;-79
2023/05/01 07:35:13;;;;;;;;;;;;;;;22.08;26.59;98167.91;4966843;28;1991;-79
2023/05/01 07:37:38;;;;;;;;;;;;;;;21.96;26.43;98177.91;4967612;28;919;-79
2023/05/01 07:40:04;;;;;;;;;;;;;;;21.72;27.08;98168.81;4982408;28;1132;-79
2023/05/01 07:42:29;;;;;;;;;;;;;;;21.46;27.50;98178.34;4967871;28;1117;-79
2023/05/01 07:44:55;;;;;;;;;;;;;;;21.46;27.48;98178.34;4982443;28;1128;-79
2023/05/01 07:47:20;;;;;;;;;;;;;;;21.45;27.25;98176.72;4968257;28;1104;-79
2023/05/01 07:49:46;;;;;;;;;;;;;;;21.46;27.25;98178.34;5010840;28;950;-79
2023/05/01 07:52:11;;;;;;;;;;;;;;;21.97;26.56;98181.56;5045128;28;929;-79
2023/05/01 07:54:37;;;;;;;;;;;;;;;22.11;26.46;98181.22;5010088;28;1954;-79
2023/05/01 07:57:05;;;;;;;;;;;;;;;22.14;26.33;98188.84;5027501;28;1020;-79
2023/05/01 07:59:30;;;;;;;;;;;;;;;21.98;26.23;98197.31;5009292;28;1379;-79
2023/05/01 08:01:56;;;;;;;;;;;;;;;21.72;26.84;98202.78;5044849;28;917;-79
2023/05/01 08:04:21;;;;;;;;;;;;;;;21.56;26.97;98194.28;5009556;28;953;-79
2023/05/01 08:06:50;;;;;;;;;;;;;;;21.42;27.11;98208.75;5044930;28;853;-79
2023/05/01 08:09:16;;;;;;;;;;;;;;;22.13;26.13;98197.78;5042621;28;887;-79
2023/05/01 08:11:41;;;;;;;;;;;;;;;22.11;26.05;98206.72;5010007;28;877;-79
2023/05/01 08:14:07;;;;;;;;;;;;;;;22.09;26.34;98215.63;5024874;28;1981;-79
2023/05/01 08:16:33;;;;;;;;;;;;;;;22.04;26.15;98219.00;5009556;28;1163;-78
2023/05/01 08:18:58;;;;;;;;;;;;;;;21.53;26.90;98217.81;5024473;28;910;-79
2023/05/01 08:21:24;;;;;;;;;;;;;;;21.44;27.10;98209.09;5026287;28;1103;-79
2023/05/01 08:23:50;;;;;;;;;;;;;;;21.79;26.69;98205.44;5024960;28;1113;-79
2023/05/01 08:26:15;;;;;;;;;;;;;;;21.38;27.14;98211.66;5009578;28;1115;-79
2023/05/01 08:28:41;;;;;;;;;;;;;;;21.91;26.46;98217.31;5042266;28;842;-79
2023/05/01 08:31:06;;;;;;;;;;;;;;;21.76;26.99;98220.50;5010357;28;1248;-78
2023/05/01 08:33:32;;;;;;;;;;;;;;;21.94;26.30;98213.59;5041848;28;867;-79
2023/05/01 08:35:58;;;;;;;;;;;;;;;22.10;25.98;98216.44;5026997;28;1985;-78
2023/05/01 08:38:24;;;;;;;;;;;;;;;21.76;26.53;98209.19;5024648;28;880;-79
2023/05/01 08:40:52;;;;;;;;;;;;;;;21.83;26.50;98213.88;5026474;28;852;-79
2023/05/01 08:43:18;;;;;;;;;;;;;;;21.59;26.68;98213.22;5024111;28;853;-79
2023/05/01 08:45:44;;;;;;;;;;;;;;;21.70;26.73;98222.25;5026749;28;1041;-79
2023/05/01 08:48:09;;;;;;;;;;;;;;;21.89;26.34;98223.44;5007572;28;984;-80
2023/05/01 08:50:35;;;;;;;;;;;;;;;21.94;26.12;98216.44;4985447;28;1243;-79
2023/05/01 08:53:02;;;;;;;;;;;;;;;21.93;26.40;98217.69;4985043;28;981;-79
2023/05/01 08:55:27;;;;;;;;;;;;;;;21.83;26.60;98217.50;4985459;28;1942;-79
2023/05/01 08:57:53;;;;;;;;;;;;;;;21.77;26.69;98215.63;4984766;28;976;-79
2023/05/01 09:00:19;;;;;;;;;;;;;;;21.82;26.27;98221.56;4984324;28;1235;-79
2023/05/01 09:02:45;;;;;;;;;;;;;;;21.37;27.04;98223.44;4984963;28;1087;-79
2023/05/01 09:05:11;;;;;;;;;;;;;;;21.55;26.83;98226.66;5001124;28;949;-79
2023/05/01 09:07:36;;;;;;;;;;;;;;;21.72;26.78;98219.78;4969814;28;1287;-79
2023/05/01 09:10:02;;;;;;;;;;;;;;;22.01;26.41;98224.75;4984492;28;889;-79
2023/05/01 09:12:28;;;;;;;;;;;;;;;21.82;26.36;98230.06;4971979;28;1064;-79
2023/05/01 09:14:54;;;;;;;;;;;;;;;21.53;26.88;98234.78;4988220;28;1906;-79
2023/05/01 09:17:20;;;;;;;;;;;;;;;21.71;26.67;98228.72;4989060;28;1020;-79
2023/05/01 09:19:46;;;;;;;;;;;;;;;21.51;27.06;98223.91;4988182;28;920;-79
2023/05/01 09:22:11;;;;;;;;;;;;;;;21.60;26.59;98226.13;5008059;28;1057;-78
2023/05/01 09:24:37;;;;;;;;;;;;;;;21.81;26.56;98227.66;5011388;28;1034;-79
2023/05/01 09:27:02;;;;;;;;;;;;;;;21.98;26.31;98237.00;5012852;28;905;-78
2023/05/01 09:29:38;;;;;;;;;;;;;;;21.98;26.48;98234.16;5027483;28;966;-78
2023/05/01 09:32:15;;;;;;;;;;;;;;;21.81;26.35;98234.16;5030135;28;952;-79
2023/05/01 09:34:41;;;;;;;;;;;;;;;21.56;26.70;98234.72;5028070;28;1898;-79
2023/05/01 09:37:07;;;;;;;;;;;;;;;21.56;27.01;98222.59;5012968;28;947;-79
2023/05/01 09:39:32;;;;;;;;;;;;;;;21.38;27.23;98227.84;5027486;28;952;-78
2023/05/01 09:41:58;;;;;;;;;;;;;;;21.83;26.54;98226.00;5046942;28;902;-78
2023/05/01 09:44:24;;;;;;;;;;;;;;;22.00;26.24;98217.50;5028122;28;955;-79
2023/05/01 09:46:49;;;;;;;;;;;;;;;22.14;25.72;98228.50;5029321;28;876;-79
2023/05/01 09:49:15;;;;;;;;;;;;;;;21.91;25.99;98225.81;5028194;28;922;-79
2023/05/01 09:51:42;;;;;;;;;;;;;;;21.70;26.76;98227.13;5028719;28;950;-79
2023/05/01 09:54:16;;;;;;;;;;;;;;;21.50;26.79;98230.00;5027590;28;1876;-79
2023/05/01 09:56:45;;;;;;;;;;;;;;;21.43;26.92;98230.97;5030160;28;825;-78
2023/05/01 09:59:15;;;;;;;;;;;;;;;21.53;26.77;98234.78;5028713;28;1044;-79
2023/05/01 10:01:41;;;;;;;;;;;;;;;21.91;26.37;98237.94;5030316;28;1068;-79
2023/05/01 10:04:08;;;;;;;;;;;;;;;22.03;26.11;98236.47;5045385;28;963;-79
2023/05/01 10:06:34;;;;;;;;;;;;;;;21.95;26.18;98232.19;5013113;28;1222;-79
2023/05/01 10:08:59;;;;;;;;;;;;;;;21.86;26.05;98232.78;5027924;28;1009;-79
2023/05/01 10:11:25;;;;;;;;;;;;;;;21.70;26.37;98242.06;5013050;28;1511;-79
2023/05/01 10:14:09;;;;;;;;;;;;;;;22.02;25.86;98226.34;5028027;28;879;-79
2023/05/01 10:16:36;;;;;;;;;;;;;;;21.74;26.45;98234.28;5045023;28;2034;-78
2023/05/01 10:19:02;;;;;;;;;;;;;;;21.71;26.31;98235.19;5026794;28;1033;-79
2023/05/01 10:21:27;;;;;;;;;;;;;;;21.73;26.65;98226.25;5028618;28;1007;-79
2023/05/01 10:23:53;;;;;;;;;;;;;;;21.91;26.15;98225.81;5043336;28;1197;-78
2023/05/01 10:26:19;;;;;;;;;;;;;;;22.18;25.84;98228.44;5044850;28;1163;-79
2023/05/01 10:28:45;;;;;;;;;;;;;;;22.11;25.97;98235.06;5026785;28;921;-79
2023/05/01 10:31:11;;;;;;;;;;;;;;;22.01;26.10;98233.25;5045715;28;909;-79
2023/05/01 10:33:37;;;;;;;;;;;;;;;21.68;26.56;98236.06;5042841;28;957;-79
2023/05/01 10:36:03;;;;;;;;;;;;;;;21.86;26.28;98241.28;5045451;28;1914;-79
2023/05/01 10:38:31;;;;;;;;;;;;;;;21.58;26.43;98232.22;5042907;28;1412;-79
2023/05/01 10:40:56;;;;;;;;;;;;;;;21.28;27.00;98250.25;5045665;28;859;-78
2023/05/01 10:43:31;;;;;;;;;;;;;;;21.90;26.19;98238.38;5044244;28;1034;-79
2023/05/01 10:46:09;;;;;;;;;;;;;;;22.06;26.08;98232.72;5045040;28;869;-78
2023/05/01 10:48:43;;;;;;;;;;;;;;;21.93;26.10;98240.34;5042498;28;1142;-79
2023/05/01 10:51:10;;;;;;;;;;;;;;;21.91;26.20;98225.81;5028198;28;1058;-79
2023/05/01 10:53:35;;;;;;;;;;;;;;;21.66;26.53;98238.56;5043219;28;884;-79
2023/05/01 10:56:03;;;;;;;;;;;;;;;21.67;26.56;98240.13;5046244;28;1906;-78
2023/05/01 10:58:37;;;;;;;;;;;;;;;21.57;26.59;98232.69;5043107;28;855;-79
2023/05/01 11:01:22;;;;;;;;;;;;;;;21.89;26.33;98225.47;5045287;28;1639;-78
2023/05/01 11:03:47;;;;;;;;;;;;;;;22.12;25.97;98225.31;5044643;28;1038;-79
2023/05/01 11:06:13;;;;;;;;;;;;;;;22.04;25.76;98238.84;5029295;28;962;-79
2023/05/01 11:08:38;;;;;;;;;;;;;;;21.84;25.99;98236.09;5042035;28;1193;-79
2023/05/01 11:11:22;;;;;;;;;;;;;;;21.81;26.27;98231.31;5024321;28;1164;-79
2023/05/01 11:14:04;;;;;;;;;;;;;;;21.41;26.93;98238.31;5021593;28;967;-79
2023/05/01 11:16:36;;;;;;;;;;;;;;;21.57;26.76;98241.19;5006905;28;911;-79
2023/05/01 11:19:01;;;;;;;;;;;;;;;21.94;26.21;98236.28;5005003;28;1206;-79
2023/05/01 11:21:32;;;;;;;;;;;;;;;22.03;25.94;98240.09;5022694;28;1193;-78
2023/05/01 11:24:08;;;;;;;;;;;;;;;21.97;26.26;98235.41;4989486;28;1066;-79
2023/05/01 11:26:36;;;;;;;;;;;;;;;21.93;26.14;98234.69;5006510;28;948;-79
2023/05/01 11:29:03;;;;;;;;;;;;;;;21.63;26.61;98233.75;4989363;28;1196;-79
2023/05/01 11:31:29;;;;;;;;;;;;;;;21.63;26.64;98228.09;5007212;28;1041;-79
2023/05/01 11:33:54;;;;;;;;;;;;;;;21.87;26.12;98227.97;5126904;23;3942;-73
2023/05/01 11:36:20;;;;;;;;;;;;;;;22.49;25.72;98228.84;5057190;28;1957;-72
2023/05/01 11:38:55;;;;;;;;;;;;;;;22.32;25.60;98231.69;5039787;28;952;-73
2023/05/01 11:41:24;;;;;;;;;;;;;;;21.97;26.29;98229.72;5022805;28;989;-74
2023/05/01 11:43:51;;;;;;;;;;;;;;;21.91;26.33;98220.94;5023043;28;955;-73
2023/05/01 11:46:26;;;;;;;;;;;;;;;21.75;26.58;98223.75;5039832;28;928;-74
2023/05/01 11:48:52;;;;;;;;;;;;;;;21.63;26.65;98230.13;5039748;28;934;-73
2023/05/01 11:51:18;;;;;;;;;;;;;;;21.88;26.12;98230.34;5057238;28;1030;-73
2023/05/01 11:53:57;;;;;;;;;;;;;;;21.77;26.12;98236.25;5039257;28;1084;-74
2023/05/01 11:56:23;;;;;;;;;;;;;;;21.89;26.19;98228.31;5039378;28;1992;-73
2023/05/01 11:58:48;;;;;;;;;;;;;;;21.82;26.04;98227.25;5056961;28;927;-73
2023/05/01 12:01:14;;;;;;;;;;;;;;;21.54;26.18;98228.69;5039023;28;965;-74
2023/05/01 12:03:40;;;;;;;;;;;;;;;21.69;26.01;98219.88;5057180;28;877;-73
2023/05/01 12:06:07;;;;;;;;;;;;;;;21.43;26.16;98213.19;5022817;28;1321;-74
2023/05/01 12:08:32;;;;;;;;;;;;;;;21.62;26.15;98214.38;5038933;28;1077;-73
2023/05/01 12:10:58;;;;;;;;;;;;;;;21.90;25.44;98213.69;5056425;28;945;-72
2023/05/01 12:13:23;;;;;;;;;;;;;;;21.91;25.39;98209.59;5056788;28;932;-72
2023/05/01 12:15:53;;;;;;;;;;;;;;;22.05;25.49;98214.13;5022126;28;1910;-73
2023/05/01 12:18:20;;;;;;;;;;;;;;;21.67;26.05;98216.69;5039127;28;924;-73
2023/05/01 12:20:46;;;;;;;;;;;;;;;21.46;26.20;98206.66;5022684;28;1053;-73
2023/05/01 12:23:13;;;;;;;;;;;;;;;21.56;26.12;98211.28;5056479;28;1107;-73
2023/05/01 12:25:39;;;;;;;;;;;;;;;21.79;25.70;98211.13;5038587;28;907;-73
2023/05/01 12:28:15;;;;;;;;;;;;;;;21.83;25.53;98206.16;5056514;28;934;-72
2023/05/01 12:30:41;;;;;;;;;;;;;;;21.99;25.18;98222.38;5038706;28;928;-73
2023/05/01 12:33:11;;;;;;;;;;;;;;;21.87;25.61;98219.47;5021963;28;924;-72
2023/05/01 12:35:37;;;;;;;;;;;;;;;21.75;25.55;98207.56;5038123;28;1906;-73
2023/05/01 12:38:29;;;;;;;;;;;;;;;21.75;25.75;98218.88;5055987;28;1601;-73
2023/05/01 12:40:56;;;;;;;;;;;;;;;21.72;25.81;98222.63;4955770;29;1302;-73
2023/05/01 12:43:31;;;;;;;;;;;;;;;21.73;25.53;98221.38;4892882;29;995;-73
2023/05/01 12:45:57;;;;;;;;;;;;;;;21.40;25.92;98225.38;4908313;29;1161;-72
2023/05/01 12:48:22;;;;;;;;;;;;;;;21.66;25.56;98221.56;4955971;29;1077;-73
2023/05/01 12:50:54;;;;;;;;;;;;;;;21.95;25.45;98223.69;4898693;29;1032;-72
2023/05/01 12:53:21;;;;;;;;;;;;;;;21.96;25.50;98226.06;4879832;29;1025;-72
2023/05/01 12:55:47;;;;;;;;;;;;;;;21.96;25.49;98222.44;4842625;29;1907;-73
2023/05/01 12:58:13;;;;;;;;;;;;;;;21.65;25.59;98230.47;4843129;29;1038;-73
2023/05/01 13:00:45;;;;;;;;;;;;;;;21.75;25.78;98227.38;4858230;29;938;-72
2023/05/01 13:03:10;;;;;;;;;;;;;;;21.76;25.66;98226.19;4858370;29;1000;-72